Aviation Digital Data Service (ADDS)

Output produced by METARs form (1914 UTC 30 July 2014)
found at http://aviationweather.gov/adds/metars/
 
KISP 301828Z 3018/3118 19009KT P6SM SCT060 
     FM310100 VRB04KT P6SM SKC 
     FM311300 20008KT P6SM FEW250